createdAt,value
2022-09-26T00:01:10.209Z,24.63
2022-09-26T00:03:37.312Z,21.52
2022-09-26T00:06:06.192Z,22.00
2022-09-26T00:08:33.569Z,21.45
2022-09-26T00:11:01.762Z,23.83
2022-09-26T00:13:29.649Z,21.20
2022-09-26T00:15:57.389Z,23.27
2022-09-26T00:18:24.922Z,20.20
2022-09-26T00:20:51.841Z,23.92
2022-09-26T00:23:19.053Z,23.73
2022-09-26T00:25:50.181Z,19.95
2022-09-26T00:28:18.111Z,22.55
2022-09-26T00:30:45.245Z,20.85
2022-09-26T00:33:12.321Z,18.67
2022-09-26T00:35:39.184Z,18.35
2022-09-26T00:38:06.529Z,21.33
2022-09-26T00:40:33.371Z,18.05
2022-09-26T00:43:00.053Z,20.83
2022-09-26T00:45:30.522Z,20.17
2022-09-26T00:48:06.845Z,18.95
2022-09-26T00:50:39.220Z,21.33
2022-09-26T00:53:10.461Z,22.55
2022-09-26T00:55:40.000Z,25.60
2022-09-26T00:58:14.667Z,22.63
2022-09-26T01:00:42.662Z,34.88
2022-09-26T01:03:09.663Z,24.17
2022-09-26T01:05:37.101Z,25.15
2022-09-26T01:08:04.416Z,22.48
2022-09-26T01:10:32.185Z,25.42
2022-09-26T01:13:01.558Z,20.48
2022-09-26T01:15:29.169Z,25.17
2022-09-26T01:17:56.030Z,23.40
2022-09-26T01:20:27.207Z,25.40
2022-09-26T01:23:30.946Z,27.73
2022-09-26T01:26:24.622Z,23.02
2022-09-26T01:29:21.161Z,24.98
2022-09-26T01:32:23.095Z,18.67
2022-09-26T01:34:59.532Z,22.45
2022-09-26T01:37:40.010Z,19.58
2022-09-26T01:40:10.997Z,25.58
2022-09-26T01:43:00.111Z,20.45
2022-09-26T01:45:33.596Z,24.40
2022-09-26T01:48:06.069Z,21.55
2022-09-26T01:50:44.232Z,19.15
2022-09-26T01:53:25.200Z,19.35
2022-09-26T01:56:00.104Z,17.23
2022-09-26T01:58:39.297Z,19.23
2022-09-26T02:01:10.672Z,21.70
2022-09-26T02:03:42.457Z,20.70
2022-09-26T02:06:13.171Z,17.35
2022-09-26T02:08:44.030Z,18.67
2022-09-26T02:11:15.280Z,17.58
2022-09-26T02:13:55.701Z,15.88
2022-09-26T02:16:32.161Z,19.98
2022-09-26T02:19:08.968Z,19.50
2022-09-26T02:21:35.719Z,17.65
2022-09-26T02:24:02.524Z,17.20
2022-09-26T02:26:29.519Z,21.52
2022-09-26T02:28:59.236Z,19.13
2022-09-26T02:31:30.278Z,20.25
2022-09-26T02:33:57.677Z,20.50
2022-09-26T02:36:26.708Z,17.52
2022-09-26T02:38:53.398Z,18.00
2022-09-26T02:41:51.006Z,19.20
2022-09-26T02:44:42.021Z,16.88
2022-09-26T02:47:28.293Z,20.27
2022-09-26T02:50:01.619Z,17.50
2022-09-26T02:52:49.756Z,15.48
2022-09-26T02:55:27.655Z,14.98
2022-09-26T02:58:12.602Z,19.35
2022-09-26T03:00:48.641Z,17.08
2022-09-26T03:03:33.817Z,22.08
2022-09-26T03:06:03.563Z,17.05
2022-09-26T03:08:35.054Z,20.08
2022-09-26T03:11:05.252Z,23.58
2022-09-26T03:13:38.101Z,21.55
2022-09-26T03:16:06.488Z,24.95
2022-09-26T03:18:42.152Z,15.82
2022-09-26T03:21:09.462Z,17.45
2022-09-26T03:23:37.788Z,17.90
2022-09-26T03:26:12.811Z,14.27
2022-09-26T03:28:50.336Z,18.50
2022-09-26T03:31:18.192Z,17.67
2022-09-26T03:33:52.280Z,17.10
2022-09-26T03:36:19.439Z,18.48
2022-09-26T03:38:46.223Z,15.73
2022-09-26T03:41:33.089Z,17.55
2022-09-26T03:44:07.638Z,15.20
2022-09-26T03:46:54.248Z,17.08
2022-09-26T03:49:21.323Z,17.92
2022-09-26T03:51:48.071Z,19.52
2022-09-26T03:54:14.992Z,17.95
2022-09-26T03:56:41.905Z,18.08
2022-09-26T03:59:09.229Z,15.73
2022-09-26T04:01:36.610Z,14.98
2022-09-26T04:04:03.247Z,15.50
2022-09-26T04:06:29.986Z,16.40
2022-09-26T04:08:59.096Z,18.02
2022-09-26T04:11:25.859Z,15.68
2022-09-26T04:13:53.968Z,19.40
2022-09-26T04:16:24.470Z,13.88
2022-09-26T04:19:12.428Z,18.63
2022-09-26T04:21:40.219Z,15.70
2022-09-26T04:24:14.629Z,21.75
2022-09-26T04:26:43.079Z,20.60
2022-09-26T04:29:10.341Z,18.20
2022-09-26T04:31:51.903Z,22.40
2022-09-26T04:34:27.243Z,15.50
2022-09-26T04:36:54.293Z,20.07
2022-09-26T04:39:21.101Z,13.48
2022-09-26T04:41:48.263Z,15.95
2022-09-26T04:44:15.301Z,14.23
2022-09-26T04:46:42.236Z,16.35
2022-09-26T04:49:09.788Z,15.38
2022-09-26T04:51:37.621Z,12.23
2022-09-26T04:54:04.694Z,18.77
2022-09-26T04:56:37.123Z,16.35
2022-09-26T04:59:05.637Z,13.10
2022-09-26T05:01:54.405Z,15.52
2022-09-26T05:04:27.740Z,16.63
2022-09-26T05:06:57.928Z,16.85
2022-09-26T05:09:30.760Z,11.07
2022-09-26T05:12:07.547Z,15.27
2022-09-26T05:14:36.342Z,14.90
2022-09-26T05:17:04.660Z,13.98
2022-09-26T05:19:32.952Z,13.27
2022-09-26T05:22:18.962Z,14.35
2022-09-26T05:25:04.615Z,19.77
2022-09-26T05:27:31.358Z,14.32
2022-09-26T05:29:58.287Z,14.75
2022-09-26T05:32:29.163Z,14.13
2022-09-26T05:34:56.251Z,17.52
2022-09-26T05:37:24.105Z,20.75
2022-09-26T05:40:09.548Z,19.55
2022-09-26T05:42:40.973Z,18.45
2022-09-26T05:45:08.904Z,17.38
2022-09-26T05:47:36.379Z,23.27
2022-09-26T05:50:09.979Z,19.88
2022-09-26T05:52:38.945Z,22.50
2022-09-26T05:55:07.997Z,20.65
2022-09-26T05:58:04.300Z,19.70
2022-09-26T06:00:53.614Z,20.35
2022-09-26T06:03:21.056Z,20.08
2022-09-26T06:06:13.792Z,22.08
2022-09-26T06:08:42.018Z,20.20
2022-09-26T06:11:22.691Z,24.63
2022-09-26T06:13:49.780Z,20.42
2022-09-26T06:16:19.580Z,18.63
2022-09-26T06:18:50.679Z,20.33
2022-09-26T06:21:19.375Z,17.17
2022-09-26T06:23:49.822Z,18.33
2022-09-26T06:26:27.226Z,19.30
2022-09-26T06:29:00.328Z,19.77
2022-09-26T06:31:30.054Z,17.23
2022-09-26T06:36:51.598Z,14.60
2022-09-26T06:39:18.327Z,19.73
2022-09-26T06:41:46.490Z,21.15
2022-09-26T06:44:35.860Z,20.60
2022-09-26T06:47:29.232Z,15.27
2022-09-26T06:50:22.655Z,13.30
2022-09-26T06:52:53.243Z,16.02
2022-09-26T06:55:19.986Z,16.20
2022-09-26T06:57:46.671Z,12.55
2022-09-26T07:00:15.958Z,16.17
2022-09-26T07:03:01.887Z,18.15
2022-09-26T07:05:56.350Z,11.23
2022-09-26T07:08:37.738Z,13.07
2022-09-26T07:11:32.650Z,10.90
2022-09-26T07:14:02.329Z,14.52
2022-09-26T07:16:29.811Z,17.67
2022-09-26T07:19:17.099Z,9.85
2022-09-26T07:21:55.416Z,9.68
2022-09-26T07:24:34.289Z,10.07
2022-09-26T07:27:01.861Z,11.35
2022-09-26T07:29:29.269Z,8.13
2022-09-26T07:31:56.159Z,7.55
2022-09-26T07:34:42.965Z,7.63
2022-09-26T07:37:12.030Z,9.68
2022-09-26T07:39:38.769Z,9.35
2022-09-26T07:42:05.652Z,6.68
2022-09-26T07:47:37.960Z,13.27
2022-09-26T07:50:11.323Z,5.60
2022-09-26T07:52:56.376Z,5.43
2022-09-26T07:55:27.402Z,9.55
2022-09-26T07:58:13.718Z,6.07
2022-09-26T08:00:58.802Z,8.05
2022-09-26T08:04:01.756Z,4.53
2022-09-26T08:06:36.798Z,8.70
2022-09-26T08:09:03.476Z,5.20
2022-09-26T08:11:48.715Z,5.43
2022-09-26T08:14:32.249Z,9.10
2022-09-26T08:17:14.415Z,6.80
2022-09-26T08:19:41.230Z,4.43
2022-09-26T08:22:08.562Z,7.57
2022-09-26T08:24:35.816Z,5.55
2022-09-26T08:27:23.196Z,8.98
2022-09-26T08:29:51.166Z,3.95
2022-09-26T08:32:19.453Z,4.75
2022-09-26T08:34:47.205Z,3.53
2022-09-26T08:37:36.952Z,7.18
2022-09-26T08:40:26.964Z,5.60
2022-09-26T08:43:56.372Z,7.80
2022-09-26T08:46:51.689Z,6.95
2022-09-26T08:50:00.131Z,7.72
2022-09-26T08:52:36.231Z,3.45
2022-09-26T08:55:27.975Z,7.82
2022-09-26T08:58:05.887Z,5.05
2022-09-26T09:00:33.887Z,3.75
2022-09-26T09:03:23.373Z,8.20
2022-09-26T09:05:53.136Z,7.93
2022-09-26T09:08:23.557Z,7.40
2022-09-26T09:11:26.397Z,4.82
2022-09-26T09:14:29.886Z,6.95
2022-09-26T09:17:21.183Z,9.43
2022-09-26T09:20:16.237Z,6.63
2022-09-26T09:23:24.509Z,4.47
2022-09-26T09:27:52.370Z,5.20
2022-09-26T09:28:53.364Z,5.82
2022-09-26T09:31:20.629Z,4.93
2022-09-26T09:34:26.780Z,7.53
2022-09-26T09:37:24.127Z,5.00
2022-09-26T09:40:28.144Z,8.20
2022-09-26T09:43:05.321Z,4.65
2022-09-26T09:45:46.393Z,5.15
2022-09-26T09:48:13.409Z,7.00
2022-09-26T09:50:42.998Z,5.20
2022-09-26T09:53:37.152Z,4.25
2022-09-26T09:56:36.778Z,7.68
2022-09-26T09:59:41.551Z,5.75
2022-09-26T10:02:19.606Z,4.47
2022-09-26T10:04:52.902Z,4.95
2022-09-26T10:07:19.829Z,4.05
2022-09-26T10:10:13.810Z,4.68
2022-09-26T10:12:59.021Z,3.38
2022-09-26T10:16:01.510Z,4.18
2022-09-26T10:19:04.217Z,4.13
2022-09-26T10:21:34.516Z,4.43
2022-09-26T10:24:04.849Z,3.88
2022-09-26T10:26:49.575Z,2.50
2022-09-26T10:29:35.232Z,2.75
2022-09-26T10:32:02.629Z,2.10
2022-09-26T10:34:32.058Z,3.33
2022-09-26T10:37:20.455Z,5.13
2022-09-26T10:40:16.390Z,4.72
2022-09-26T10:42:47.190Z,2.70
2022-09-26T10:45:18.053Z,2.95
2022-09-26T10:48:08.172Z,3.85
2022-09-26T10:53:38.675Z,4.97
2022-09-26T10:56:12.037Z,2.53
2022-09-26T10:58:42.629Z,3.00
2022-09-26T11:01:21.057Z,3.55
2022-09-26T11:03:49.449Z,1.95
2022-09-26T11:06:40.735Z,3.72
2022-09-26T11:09:30.968Z,6.95
2022-09-26T11:11:57.851Z,2.20
2022-09-26T11:14:31.294Z,2.20
2022-09-26T11:17:03.389Z,2.80
2022-09-26T11:19:35.396Z,1.85
2022-09-26T11:22:08.526Z,3.40
2022-09-26T11:24:55.158Z,2.30
2022-09-26T11:27:43.394Z,4.80
2022-09-26T11:30:15.163Z,1.60
2022-09-26T11:32:55.461Z,2.00
2022-09-26T11:36:11.074Z,4.72
2022-09-26T11:38:51.027Z,3.03
2022-09-26T11:41:44.101Z,2.25
2022-09-26T11:44:47.811Z,2.42
2022-09-26T11:47:44.908Z,2.40
2022-09-26T11:50:26.566Z,4.40
2022-09-26T11:54:00.517Z,3.92
2022-09-26T11:56:42.233Z,2.88
2022-09-26T11:59:21.399Z,3.05
2022-09-26T12:02:19.307Z,2.75
2022-09-26T12:05:13.847Z,1.75
2022-09-26T12:07:56.402Z,2.72
2022-09-26T12:10:45.351Z,3.50
2022-09-26T12:13:54.369Z,5.57
2022-09-26T12:16:37.373Z,11.38
2022-09-26T12:19:22.916Z,10.55
2022-09-26T12:22:23.303Z,6.15
2022-09-26T12:25:19.926Z,3.05
2022-09-26T12:28:02.438Z,4.47
2022-09-26T12:30:37.565Z,3.50
2022-09-26T12:33:51.173Z,2.83
2022-09-26T12:36:40.696Z,5.10
2022-09-26T12:39:24.679Z,4.32
2022-09-26T12:41:57.242Z,1.33
2022-09-26T12:44:39.087Z,3.40
2022-09-26T12:47:55.763Z,3.92
2022-09-26T12:50:29.334Z,3.00
2022-09-26T12:53:10.349Z,3.05
2022-09-26T12:55:49.016Z,9.77
2022-09-26T12:58:55.421Z,4.40
2022-09-26T13:02:10.125Z,3.30
2022-09-26T13:04:46.127Z,2.55
2022-09-26T13:07:21.380Z,5.03
2022-09-26T13:09:55.570Z,2.72
2022-09-26T13:12:50.856Z,3.88
2022-09-26T13:15:32.512Z,3.10
2022-09-26T13:18:05.300Z,1.98
2022-09-26T13:20:43.645Z,1.58
2022-09-26T13:23:27.498Z,1.77
2022-09-26T13:26:15.432Z,3.25
2022-09-26T13:29:18.019Z,0.80
2022-09-26T13:32:02.008Z,2.30
2022-09-26T13:34:39.582Z,1.83
2022-09-26T13:37:19.667Z,0.73
2022-09-26T13:40:21.301Z,0.50
2022-09-26T13:42:58.313Z,1.05
2022-09-26T13:45:43.126Z,0.73
2022-09-26T13:48:33.805Z,0.70
2022-09-26T13:51:19.336Z,2.25
2022-09-26T13:53:51.936Z,1.08
2022-09-26T13:59:14.525Z,1.02
2022-09-26T14:02:19.009Z,2.03
2022-09-26T14:04:50.413Z,0.70
2022-09-26T14:08:06.083Z,1.33
2022-09-26T14:10:37.017Z,1.25
2022-09-26T14:13:24.961Z,2.38
2022-09-26T14:16:05.882Z,3.63
2022-09-26T14:18:45.343Z,2.33
2022-09-26T14:21:29.128Z,0.50
2022-09-26T14:24:20.725Z,1.17
2022-09-26T14:27:05.648Z,2.13
2022-09-26T14:29:32.660Z,1.67
2022-09-26T14:32:09.823Z,2.75
2022-09-26T14:34:53.355Z,3.40
2022-09-26T14:37:25.754Z,0.80
2022-09-26T14:40:13.880Z,2.30
2022-09-26T14:42:46.182Z,1.50
2022-09-26T14:45:25.068Z,1.02
2022-09-26T14:48:08.102Z,0.98
2022-09-26T14:50:44.371Z,5.15
2022-09-26T14:53:22.822Z,2.35
2022-09-26T14:56:03.341Z,0.93
2022-09-26T14:58:39.684Z,1.15
2022-09-26T15:01:18.151Z,1.85
2022-09-26T15:04:18.067Z,2.63
2022-09-26T15:07:00.334Z,1.73
2022-09-26T15:09:47.976Z,0.50
2022-09-26T15:12:27.507Z,3.92
2022-09-26T15:15:00.050Z,3.38
2022-09-26T15:17:33.940Z,2.80
2022-09-26T15:20:10.254Z,9.18
2022-09-26T15:22:37.191Z,4.05
2022-09-26T15:25:09.190Z,1.70
2022-09-26T15:27:35.842Z,0.95
2022-09-26T15:30:07.585Z,1.33
2022-09-26T15:32:34.379Z,2.13
2022-09-26T15:35:01.730Z,1.48
2022-09-26T15:37:34.607Z,2.78
2022-09-26T15:40:34.240Z,1.15
2022-09-26T15:43:10.496Z,2.35
2022-09-26T15:45:56.564Z,0.88
2022-09-26T15:48:34.581Z,2.47
2022-09-26T15:51:05.975Z,0.57
2022-09-26T15:53:42.963Z,6.63
2022-09-26T15:56:12.857Z,3.10
2022-09-26T15:58:39.425Z,2.45
2022-09-26T16:01:07.448Z,1.80
2022-09-26T16:03:37.255Z,2.15
2022-09-26T16:06:23.109Z,3.50
2022-09-26T16:09:00.538Z,2.10
2022-09-26T16:11:27.798Z,1.65
2022-09-26T16:13:56.693Z,1.33
2022-09-26T16:16:31.808Z,2.78
2022-09-26T16:19:03.820Z,1.90
2022-09-26T16:21:36.498Z,0.77
2022-09-26T16:24:26.943Z,1.23
2022-09-26T16:26:54.930Z,1.48
2022-09-26T16:29:34.782Z,2.15
2022-09-26T16:32:03.488Z,1.70
2022-09-26T16:34:31.625Z,2.50
2022-09-26T16:36:58.543Z,1.65
2022-09-26T16:39:29.970Z,2.42
2022-09-26T16:42:03.123Z,1.77
2022-09-26T16:44:42.617Z,2.95
2022-09-26T16:47:39.431Z,1.85
2022-09-26T16:50:26.773Z,3.17
2022-09-26T16:52:54.282Z,1.55
2022-09-26T16:55:21.711Z,1.52
2022-09-26T16:57:57.595Z,4.65
2022-09-26T17:00:48.781Z,1.45
2022-09-26T17:03:26.537Z,2.55
2022-09-26T17:05:55.622Z,2.22
2022-09-26T17:08:23.408Z,2.97
2022-09-26T17:10:50.089Z,3.38
2022-09-26T17:13:26.294Z,2.40
2022-09-26T17:15:55.602Z,3.97
2022-09-26T17:18:29.192Z,3.88
2022-09-26T17:20:56.892Z,1.23
2022-09-26T17:23:39.525Z,4.40
2022-09-26T17:26:07.797Z,3.75
2022-09-26T17:28:40.450Z,1.58
2022-09-26T17:31:10.019Z,1.98
2022-09-26T17:33:40.637Z,2.55
2022-09-26T17:36:11.037Z,1.88
2022-09-26T17:38:40.369Z,4.85
2022-09-26T17:41:07.001Z,2.22
2022-09-26T17:43:34.100Z,3.72
2022-09-26T17:46:01.081Z,2.25
2022-09-26T17:48:31.385Z,2.10
2022-09-26T17:51:00.662Z,3.45
2022-09-26T17:53:36.570Z,2.92
2022-09-26T17:56:06.336Z,2.15
2022-09-26T17:58:44.341Z,3.45
2022-09-26T18:01:23.743Z,2.42
2022-09-26T18:03:52.122Z,2.83
2022-09-26T18:06:19.379Z,3.88
2022-09-26T18:08:46.384Z,7.03
2022-09-26T18:11:15.751Z,3.58
2022-09-26T18:13:49.936Z,3.22
2022-09-26T18:16:16.932Z,5.03
2022-09-26T18:18:44.207Z,2.40
2022-09-26T18:21:15.709Z,6.95
2022-09-26T18:23:44.252Z,3.78
2022-09-26T18:26:31.615Z,2.83
2022-09-26T18:29:01.775Z,2.63
2022-09-26T18:31:30.115Z,4.03
2022-09-26T18:33:58.054Z,4.38
2022-09-26T18:36:25.000Z,3.63
2022-09-26T18:38:53.789Z,3.17
2022-09-26T18:41:22.110Z,2.67
2022-09-26T18:43:52.650Z,2.03
2022-09-26T18:46:19.603Z,3.70
2022-09-26T18:48:47.397Z,4.15
2022-09-26T18:51:14.497Z,4.38
2022-09-26T18:53:41.932Z,2.90
2022-09-26T18:56:28.835Z,2.35
2022-09-26T18:59:01.118Z,2.78
2022-09-26T19:01:35.902Z,1.40
2022-09-26T19:04:04.476Z,3.65
2022-09-26T19:06:35.234Z,2.80
2022-09-26T19:09:07.803Z,5.07
2022-09-26T19:11:35.205Z,5.90
2022-09-26T19:14:12.022Z,3.30
2022-09-26T19:16:38.720Z,1.90
2022-09-26T19:19:05.384Z,3.63
2022-09-26T19:21:51.076Z,2.40
2022-09-26T19:24:21.699Z,2.65
2022-09-26T19:26:53.908Z,6.78
2022-09-26T19:29:27.624Z,4.03
2022-09-26T19:31:54.545Z,4.90
2022-09-26T19:34:22.134Z,1.90
2022-09-26T19:36:50.280Z,3.72
2022-09-26T19:39:17.170Z,3.30
2022-09-26T19:41:43.832Z,2.45
2022-09-26T19:44:10.576Z,2.30
2022-09-26T19:46:37.560Z,3.33
2022-09-26T19:49:05.880Z,3.20
2022-09-26T19:51:34.377Z,2.28
2022-09-26T19:54:05.961Z,2.28
2022-09-26T19:56:33.367Z,2.00
2022-09-26T19:59:00.351Z,2.92
2022-09-26T20:01:27.529Z,2.75
2022-09-26T20:03:54.250Z,4.35
2022-09-26T20:06:23.005Z,3.63
2022-09-26T20:08:51.143Z,2.15
2022-09-26T20:11:17.805Z,4.40
2022-09-26T20:14:03.652Z,3.45
2022-09-26T20:16:34.488Z,7.32
2022-09-26T20:19:03.642Z,4.65
2022-09-26T20:21:30.729Z,2.20
2022-09-26T20:24:00.419Z,2.85
2022-09-26T20:26:29.516Z,3.78
2022-09-26T20:28:57.021Z,2.17
2022-09-26T20:31:28.078Z,3.53
2022-09-26T20:33:59.297Z,2.08
2022-09-26T20:36:30.739Z,5.32
2022-09-26T20:39:00.480Z,9.95
2022-09-26T20:41:38.812Z,4.72
2022-09-26T20:44:08.202Z,3.60
2022-09-26T20:46:37.018Z,2.28
2022-09-26T20:49:07.809Z,4.88
2022-09-26T20:51:35.178Z,3.28
2022-09-26T20:54:02.706Z,5.68
2022-09-26T20:56:29.589Z,4.78
2022-09-26T20:58:56.245Z,1.05
2022-09-26T21:01:23.030Z,3.40
2022-09-26T21:03:52.146Z,2.58
2022-09-26T21:06:21.309Z,3.60
2022-09-26T21:08:48.200Z,2.08
2022-09-26T21:11:20.095Z,3.30
2022-09-26T21:13:46.921Z,3.63
2022-09-26T21:16:14.946Z,1.65
2022-09-26T21:18:43.339Z,2.60
2022-09-26T21:21:23.256Z,2.10
2022-09-26T21:23:59.040Z,2.08
2022-09-26T21:26:27.771Z,1.48
2022-09-26T21:28:56.207Z,2.25
2022-09-26T21:31:28.648Z,2.13
2022-09-26T21:34:00.430Z,2.03
2022-09-26T21:36:34.732Z,1.50
2022-09-26T21:39:02.250Z,2.35
2022-09-26T21:41:29.447Z,1.65
2022-09-26T21:44:14.109Z,3.25
2022-09-26T21:46:40.790Z,1.10
2022-09-26T21:49:07.563Z,1.60
2022-09-26T21:51:35.358Z,2.30
2022-09-26T21:54:24.695Z,1.30
2022-09-26T21:56:55.436Z,1.00
2022-09-26T21:59:23.781Z,0.60
2022-09-26T22:01:50.504Z,4.40
2022-09-26T22:04:19.062Z,2.90
2022-09-26T22:06:45.763Z,5.22
2022-09-26T22:09:12.614Z,2.70
2022-09-26T22:11:39.849Z,1.67
2022-09-26T22:14:06.772Z,1.75
2022-09-26T22:16:33.510Z,3.22
2022-09-26T22:19:00.556Z,4.53
2022-09-26T22:21:27.689Z,2.00
2022-09-26T22:23:54.373Z,3.45
2022-09-26T22:26:21.155Z,2.38
2022-09-26T22:28:49.193Z,2.95
2022-09-26T22:31:16.239Z,1.67
2022-09-26T22:33:42.962Z,1.85
2022-09-26T22:36:09.776Z,1.73
2022-09-26T22:38:36.971Z,3.65
2022-09-26T22:41:06.306Z,2.53
2022-09-26T22:43:33.875Z,5.53
2022-09-26T22:46:08.980Z,5.05
2022-09-26T22:48:38.045Z,3.35
2022-09-26T22:51:05.260Z,2.08
2022-09-26T22:53:36.279Z,3.95
2022-09-26T22:56:05.627Z,2.10
2022-09-26T22:58:36.716Z,2.63
2022-09-26T23:01:05.526Z,3.28
2022-09-26T23:03:33.140Z,6.30
2022-09-26T23:06:00.328Z,5.60
2022-09-26T23:08:27.402Z,5.18
2022-09-26T23:10:55.523Z,8.38
2022-09-26T23:13:24.605Z,4.80
2022-09-26T23:15:51.260Z,10.70
2022-09-26T23:18:17.898Z,6.28
2022-09-26T23:20:45.044Z,4.20
2022-09-26T23:23:13.387Z,6.07
2022-09-26T23:25:47.889Z,4.57
2022-09-26T23:28:15.315Z,4.72
2022-09-26T23:30:42.604Z,4.50
2022-09-26T23:33:09.886Z,5.88
2022-09-26T23:35:36.844Z,3.97
2022-09-26T23:38:05.438Z,2.22
2022-09-26T23:40:34.341Z,6.75
2022-09-26T23:43:02.368Z,1.50
2022-09-26T23:45:29.181Z,3.15
2022-09-26T23:47:55.959Z,2.97
2022-09-26T23:50:22.652Z,2.30
2022-09-26T23:52:49.397Z,2.72
2022-09-26T23:55:16.961Z,4.45
2022-09-26T23:57:43.646Z,3.67
